Time,TemperatureF,DewpointF,PressureIn,WindDirection,WindDirectionDegrees,WindSpeedMPH,WindSpeedGustMPH,Humidity,HourlyPrecipIn,Conditions,Clouds,dailyrainin,SoftwareType,DateUTC
2013-02-07 00:01:00,41.9,22.6,29.72,ENE,65,0.0,0.0,46,0.00,,SKC,0.00,VWS V12.07,2013-02-07 08:01:00,
2013-02-07 01:01:00,41.9,24.6,29.72,ENE,65,0.0,3.0,50,0.00,,SKC,0.00,VWS V12.07,2013-02-07 09:01:00,
2013-02-07 02:01:00,40.9,24.2,29.71,ENE,65,1.0,3.0,51,0.00,,SKC,0.00,VWS V12.07,2013-02-07 10:01:00,
2013-02-07 03:01:00,40.5,12.3,29.70,ENE,65,0.0,2.0,31,0.00,,SKC,0.00,VWS V12.07,2013-02-07 11:01:00,
2013-02-07 04:01:00,41.6,18.5,29.70,ENE,65,0.0,0.0,39,0.00,,SKC,0.00,VWS V12.07,2013-02-07 12:01:00,
2013-02-07 05:02:00,43.1,6.8,29.70,ENE,65,0.0,0.0,22,0.00,,SKC,0.00,VWS V12.07,2013-02-07 13:02:00,
2013-02-07 06:03:00,41.1,5.2,29.70,ENE,65,1.0,2.0,22,0.00,,SKC,0.00,VWS V12.07,2013-02-07 14:03:00,
2013-02-07 07:03:00,43.2,0.1,29.71,ENE,64,4.0,4.0,16,0.00,,SKC,0.00,VWS V12.07,2013-02-07 15:03:00,
2013-02-07 08:03:00,45.5,5.7,29.71,ENE,63,0.0,3.0,19,0.00,,SKC,0.00,VWS V12.07,2013-02-07 16:03:00,
2013-02-07 09:03:00,46.8,6.7,29.72,SE,129,2.0,4.0,19,0.00,,SKC,0.00,VWS V12.07,2013-02-07 17:03:00,
2013-02-07 10:03:00,49.8,9.2,29.71,SSE,157,4.0,7.0,19,0.00,,SKC,0.00,VWS V12.07,2013-02-07 18:03:00,
2013-02-07 11:03:00,50.1,14.7,29.70,West,265,9.0,12.0,24,0.00,,SKC,0.00,VWS V12.07,2013-02-07 19:03:00,
2013-02-07 12:03:00,52.0,16.4,29.68,SSW,193,6.0,13.0,24,0.00,,SKC,0.00,VWS V12.07,2013-02-07 20:03:00,
2013-02-07 13:03:00,50.7,17.1,29.66,WNW,285,4.0,17.0,26,0.00,,SKC,0.00,VWS V12.07,2013-02-07 21:03:00,
2013-02-07 14:03:00,51.0,26.3,29.65,West,281,13.0,14.0,38,0.00,,SKC,0.00,VWS V12.07,2013-02-07 22:03:00,
2013-02-07 15:03:00,48.9,29.6,29.64,West,279,5.0,11.0,47,0.00,,SKC,0.00,VWS V12.07,2013-02-07 23:03:00,
2013-02-07 16:03:00,47.7,25.8,29.63,SW,221,1.0,12.0,42,0.00,,SKC,0.00,VWS V12.07,2013-02-08 00:03:00,
2013-02-07 17:03:00,42.8,25.5,29.62,SSW,212,0.0,8.0,50,0.00,,SKC,0.00,VWS V12.07,2013-02-08 01:03:00,
2013-02-07 18:03:00,37.5,25.3,29.61,SSW,206,9.0,14.0,61,0.00,,SKC,0.00,VWS V12.07,2013-02-08 02:03:00,
2013-02-07 19:03:00,35.9,26.4,29.59,SSW,193,9.0,20.0,68,0.00,,SKC,0.00,VWS V12.07,2013-02-08 03:03:00,
2013-02-07 20:03:00,34.7,24.5,29.58,SW,235,13.0,17.0,66,0.00,,SKC,0.00,VWS V12.07,2013-02-08 04:03:00,
2013-02-07 21:03:00,35.8,15.5,29.56,WSW,248,4.0,17.0,43,0.00,,SKC,0.00,VWS V12.07,2013-02-08 05:03:00,
2013-02-07 22:03:00,30.0,27.2,29.55,WSW,244,14.0,21.0,89,0.00,,SKC,0.00,VWS V12.07,2013-02-08 06:03:00,
2013-02-07 23:04:00,28.2,25.1,29.53,WSW,256,13.0,13.0,88,0.00,,SKC,0.00,VWS V12.07,2013-02-08 07:04:00,